Terminal Aerodrome Forecast
Issued by NWS

Home | Current Version | Previous Version | Text Only | Print | Product List | Glossary On
Versions: 1 2 3 4 5 6 7 8 9 10 11 12 13
344
FTUS45 KFGZ 102338
TAFPRC
TAF
KPRC 102338Z 1100/1124 23011KT P6SM SCT250
     FM110100 22006KT P6SM FEW080 SCT250
     FM111700 VRB05KT P6SM SCT080 BKN250=

USA.gov is the U.S. government's official web portal to all federal, state and local government web resources and services.